createdAt,value
2022-11-15T00:05:28.785Z,89.13
2022-11-15T00:11:00.398Z,89.72
2022-11-15T00:16:32.306Z,90.27
2022-11-15T00:22:03.936Z,90.22
2022-11-15T00:27:35.757Z,90.01
2022-11-15T00:33:07.463Z,89.96
2022-11-15T00:38:39.312Z,89.94
2022-11-15T00:44:10.975Z,90.31
2022-11-15T00:49:42.840Z,90.27
2022-11-15T00:55:14.596Z,88.37
2022-11-15T01:00:46.344Z,89.21
2022-11-15T01:06:18.172Z,89.84
2022-11-15T01:11:50.222Z,90.08
2022-11-15T01:17:21.667Z,90.02
2022-11-15T01:22:52.901Z,89.75
2022-11-15T01:28:24.346Z,89.78
2022-11-15T01:33:56.058Z,89.33
2022-11-15T01:39:27.773Z,89.59
2022-11-15T01:44:59.092Z,89.45
2022-11-15T01:52:43.025Z,89.31
2022-11-15T01:58:14.353Z,90.62
2022-11-15T02:03:46.092Z,90.25
2022-11-15T02:09:17.953Z,90.16
2022-11-15T02:14:49.926Z,90.11
2022-11-15T02:20:21.606Z,90.01
2022-11-15T02:25:53.426Z,90.19
2022-11-15T02:31:25.246Z,90.17
2022-11-15T02:36:56.948Z,88.86
2022-11-15T02:42:29.114Z,88.55
2022-11-15T02:48:00.964Z,88.71
2022-11-15T02:53:33.037Z,88.69
2022-11-15T02:59:04.335Z,89.33
2022-11-15T03:04:36.445Z,90.09
2022-11-15T03:10:08.544Z,90.72
2022-11-15T03:15:40.373Z,90.68
2022-11-15T03:21:12.118Z,92.62
2022-11-15T03:26:44.032Z,93.37
2022-11-15T03:32:15.983Z,92.54
2022-11-15T03:37:47.644Z,92.32
2022-11-15T03:43:19.531Z,92.48
2022-11-15T03:48:51.264Z,92.36
2022-11-15T03:54:22.991Z,92.16
2022-11-15T03:59:54.725Z,91.88
2022-11-15T04:05:26.466Z,91.90
2022-11-15T04:10:58.972Z,92.48
2022-11-15T04:16:30.585Z,92.03
2022-11-15T04:22:02.306Z,91.95
2022-11-15T04:27:34.219Z,90.50
2022-11-15T04:33:05.872Z,90.96
2022-11-15T04:38:37.786Z,91.22
2022-11-15T04:44:09.366Z,91.27
2022-11-15T04:49:41.111Z,91.36
2022-11-15T04:55:12.837Z,91.30
2022-11-15T04:57:37.008Z,91.19
2022-11-15T05:03:08.947Z,91.14
2022-11-15T05:08:41.010Z,91.18
2022-11-15T05:14:13.064Z,91.19
2022-11-15T05:19:44.862Z,91.34
2022-11-15T05:25:16.797Z,91.68
2022-11-15T05:30:48.765Z,91.47
2022-11-15T05:36:20.671Z,91.53
2022-11-15T05:41:52.505Z,91.56
2022-11-15T05:47:24.142Z,91.37
2022-11-15T05:52:59.666Z,91.48
2022-11-15T05:58:28.296Z,92.15
2022-11-15T06:04:00.125Z,93.06
2022-11-15T06:09:31.817Z,92.32
2022-11-15T06:15:03.603Z,90.89
2022-11-15T06:20:35.558Z,91.80
2022-11-15T06:26:07.349Z,92.41
2022-11-15T06:31:38.931Z,92.74
2022-11-15T06:37:10.446Z,93.26
2022-11-15T06:42:42.214Z,93.73
2022-11-15T06:48:13.872Z,94.25
2022-11-15T06:53:45.581Z,93.46
2022-11-15T06:59:17.420Z,92.42
2022-11-15T07:04:49.831Z,90.54
2022-11-15T07:10:21.932Z,85.68
2022-11-15T07:15:53.654Z,84.80
2022-11-15T07:21:27.729Z,84.54
2022-11-15T07:26:57.209Z,84.26
2022-11-15T07:32:29.568Z,85.51
2022-11-15T07:38:01.672Z,85.10
2022-11-15T07:45:30.648Z,86.70
2022-11-15T07:51:02.587Z,86.67
2022-11-15T07:56:34.313Z,85.57
2022-11-15T08:02:06.105Z,85.37
2022-11-15T08:13:07.575Z,84.95
2022-11-15T08:18:39.233Z,81.39
2022-11-15T08:24:11.229Z,77.51
2022-11-15T08:29:43.413Z,75.10
2022-11-15T08:35:15.368Z,75.04
2022-11-15T08:40:47.643Z,73.98
2022-11-15T08:46:19.818Z,72.96
2022-11-15T08:51:52.085Z,72.51
2022-11-15T08:57:24.480Z,72.21
2022-11-15T09:03:02.354Z,79.38
2022-11-15T09:08:47.357Z,72.57
2022-11-15T09:14:06.244Z,73.06
2022-11-15T09:19:38.378Z,73.25
2022-11-15T09:25:16.277Z,73.79
2022-11-15T09:30:48.626Z,74.67
2022-11-15T09:36:20.850Z,75.10
2022-11-15T09:41:59.064Z,73.29
2022-11-15T09:47:31.237Z,72.92
2022-11-15T09:53:08.961Z,75.44
2022-11-15T09:58:40.966Z,75.83
2022-11-15T10:04:19.187Z,76.28
2022-11-15T10:09:57.014Z,76.01
2022-11-15T10:15:29.298Z,75.56
2022-11-15T10:21:07.638Z,75.39
2022-11-15T10:26:45.711Z,71.84
2022-11-15T10:32:18.099Z,67.50
2022-11-15T10:37:56.301Z,69.36
2022-11-15T10:43:34.436Z,66.84
2022-11-15T10:49:06.746Z,65.63
2022-11-15T10:54:38.663Z,64.33
2022-11-15T11:00:16.824Z,64.58
2022-11-15T11:05:49.025Z,64.50
2022-11-15T11:11:20.884Z,64.63
2022-11-15T11:16:59.085Z,65.34
2022-11-15T11:22:37.291Z,65.08
2022-11-15T11:28:10.584Z,66.60
2022-11-15T11:33:48.920Z,66.60
2022-11-15T11:39:21.485Z,64.17
2022-11-15T11:44:53.382Z,63.92
2022-11-15T11:50:31.474Z,63.18
2022-11-15T11:56:03.350Z,64.57
2022-11-15T12:01:35.643Z,64.91
2022-11-15T12:07:07.943Z,65.58
2022-11-15T12:12:46.093Z,64.38
2022-11-15T12:18:18.251Z,65.38
2022-11-15T12:23:56.354Z,65.57
2022-11-15T12:29:34.509Z,65.78
2022-11-15T12:35:12.316Z,64.97
2022-11-15T12:40:44.649Z,64.09
2022-11-15T12:46:16.635Z,65.61
2022-11-15T12:51:48.952Z,64.20
2022-11-15T12:57:21.199Z,63.12
2022-11-15T13:02:59.545Z,62.36
2022-11-15T13:08:32.018Z,63.51
2022-11-15T13:14:04.064Z,62.87
2022-11-15T13:19:42.234Z,64.13
2022-11-15T13:25:19.995Z,64.72
2022-11-15T13:30:52.164Z,64.15
2022-11-15T13:42:10.204Z,65.55
2022-11-15T13:47:48.329Z,65.84
2022-11-15T13:53:20.265Z,66.03
2022-11-15T13:58:52.472Z,68.69
2022-11-15T14:04:24.849Z,70.46
2022-11-15T14:09:56.885Z,70.46
2022-11-15T14:15:28.758Z,69.13
2022-11-15T14:21:06.576Z,70.50
2022-11-15T14:26:44.225Z,71.15
2022-11-15T14:32:22.117Z,70.98
2022-11-15T14:43:38.275Z,71.45
2022-11-15T14:49:16.336Z,71.66
2022-11-15T14:54:48.589Z,72.57
2022-11-15T15:00:20.874Z,71.54
2022-11-15T15:05:53.210Z,72.88
2022-11-15T15:11:25.693Z,72.70
2022-11-15T15:16:57.804Z,73.90
2022-11-15T15:22:30.567Z,74.06
2022-11-15T15:28:02.464Z,75.46
2022-11-15T15:33:34.508Z,75.34
2022-11-15T15:39:06.678Z,75.24
2022-11-15T15:44:39.094Z,75.23
2022-11-15T15:50:11.489Z,76.22
2022-11-15T15:55:43.349Z,76.11
2022-11-15T16:01:15.300Z,76.48
2022-11-15T16:06:47.265Z,76.83
2022-11-15T16:12:19.211Z,77.18
2022-11-15T16:17:51.555Z,75.73
2022-11-15T16:23:23.620Z,77.15
2022-11-15T16:28:55.599Z,77.89
2022-11-15T16:34:31.169Z,75.64
2022-11-15T16:40:01.326Z,77.83
2022-11-15T16:45:32.288Z,79.15
2022-11-15T16:51:04.555Z,79.45
2022-11-15T16:56:36.605Z,78.52
2022-11-15T17:02:08.388Z,77.48
2022-11-15T17:07:40.032Z,77.58
2022-11-15T17:13:12.092Z,79.42
2022-11-15T17:18:44.388Z,79.65
2022-11-15T17:24:16.550Z,78.83
2022-11-15T17:29:48.723Z,79.14
2022-11-15T17:35:21.284Z,80.14
2022-11-15T17:40:53.155Z,78.66
2022-11-15T17:46:25.167Z,80.27
2022-11-15T17:51:57.723Z,80.46
2022-11-15T17:57:29.690Z,79.80
2022-11-15T18:03:01.764Z,80.63
2022-11-15T18:08:33.850Z,80.84
2022-11-15T18:14:05.764Z,80.86
2022-11-15T18:19:38.010Z,81.34
2022-11-15T18:25:10.246Z,82.68
2022-11-15T18:30:42.515Z,83.00
2022-11-15T18:36:14.774Z,83.27
2022-11-15T18:41:47.061Z,84.27
2022-11-15T18:47:19.375Z,83.62
2022-11-15T18:49:43.099Z,83.26
2022-11-15T18:55:15.197Z,82.98
2022-11-15T19:00:47.053Z,83.13
2022-11-15T19:06:18.857Z,83.79
2022-11-15T19:11:50.784Z,83.38
2022-11-15T19:17:22.231Z,83.44
2022-11-15T19:22:53.638Z,84.02
2022-11-15T19:28:25.642Z,84.00
2022-11-15T19:33:57.439Z,84.56
2022-11-15T19:39:29.141Z,85.14
2022-11-15T19:45:00.928Z,86.09
2022-11-15T19:50:32.669Z,86.35
2022-11-15T19:56:04.684Z,85.79
2022-11-15T20:01:36.702Z,85.18
2022-11-15T20:07:08.531Z,84.75
2022-11-15T20:12:45.767Z,85.50
2022-11-15T20:18:17.721Z,84.60
2022-11-15T20:23:49.429Z,84.64
2022-11-15T20:29:27.177Z,84.72
2022-11-15T20:34:59.088Z,84.02
2022-11-15T20:40:30.921Z,84.82
2022-11-15T20:46:02.584Z,84.57
2022-11-15T20:51:34.386Z,84.86
2022-11-15T20:57:06.345Z,85.43
2022-11-15T21:02:37.819Z,86.02
2022-11-15T21:08:09.449Z,86.28
2022-11-15T21:13:40.853Z,86.59
2022-11-15T21:19:12.547Z,87.16
2022-11-15T21:24:44.307Z,86.72
2022-11-15T21:30:16.256Z,87.82
2022-11-15T21:35:53.706Z,83.52
2022-11-15T21:46:54.738Z,87.11
2022-11-15T21:52:26.316Z,86.97
2022-11-15T21:57:58.030Z,88.99
2022-11-15T22:03:29.866Z,88.90
2022-11-15T22:14:31.046Z,87.22
2022-11-15T22:20:22.764Z,85.88
2022-11-15T22:25:34.589Z,86.49
2022-11-15T22:37:13.294Z,87.91
2022-11-15T22:42:18.249Z,87.53
2022-11-15T22:47:46.945Z,87.68
2022-11-15T22:53:18.781Z,89.54
2022-11-15T22:58:50.496Z,90.31
2022-11-15T23:04:22.405Z,89.96
2022-11-15T23:09:54.116Z,88.92
2022-11-15T23:15:29.568Z,89.86
2022-11-15T23:20:57.719Z,88.35
2022-11-15T23:26:29.321Z,86.84
2022-11-15T23:32:02.291Z,88.63
2022-11-15T23:37:32.525Z,86.47
2022-11-15T23:43:04.363Z,86.24
2022-11-15T23:48:36.195Z,86.03
2022-11-15T23:54:07.408Z,86.18
2022-11-15T23:59:39.082Z,87.59
